Time;durP1;ratioP1;P1;durP2;ratioP2;P2;SDS_P1;SDS_P2;PMS_P1;PMS_P2;Temp;Humidity;BMP_temperature;BMP_pressure;BME280_temperature;BME280_humidity;BME280_pressure;Samples;Min_cycle;Max_cycle;Signal;HPM_P1;HPM_P2
2024/04/06 00:01:30;;;;;;;2.63;1.40;;;13.90;99.90;;;;;;4990377;28;20161;-46
2024/04/06 00:03:56;;;;;;;6.13;1.60;;;13.90;99.90;;;;;;4990101;28;20023;-48
2024/04/06 00:06:22;;;;;;;2.10;1.20;;;13.90;99.90;;;;;;4990201;28;20037;-46
2024/04/06 00:08:50;;;;;;;5.10;1.75;;;14.00;99.90;;;;;;4990234;28;20287;-47
2024/04/06 00:11:16;;;;;;;3.10;1.20;;;14.00;99.90;;;;;;4990323;28;20272;-49
2024/04/06 00:13:42;;;;;;;2.83;1.48;;;14.10;99.90;;;;;;4989924;28;20330;-48
2024/04/06 00:16:07;;;;;;;4.03;1.90;;;14.10;99.90;;;;;;4990179;28;20035;-49
2024/04/06 00:18:35;;;;;;;4.50;1.67;;;14.10;99.90;;;;;;4989882;28;20090;-47
2024/04/06 00:21:02;;;;;;;4.32;1.60;;;14.10;99.90;;;;;;4990044;28;20018;-49
2024/04/06 00:23:28;;;;;;;3.60;1.35;;;14.10;99.90;;;;;;4990014;28;20057;-47
2024/04/06 00:25:54;;;;;;;4.75;1.40;;;14.20;99.90;;;;;;4989787;28;20022;-46
2024/04/06 00:28:19;;;;;;;4.05;1.92;;;14.10;99.90;;;;;;4989712;28;20030;-46
2024/04/06 00:30:45;;;;;;;7.53;2.13;;;14.10;99.90;;;;;;4989799;28;20030;-47
2024/04/06 00:33:11;;;;;;;5.60;1.50;;;14.10;99.90;;;;;;4989909;28;20049;-49
2024/04/06 00:35:38;;;;;;;5.53;1.58;;;14.20;99.90;;;;;;4990578;28;20106;-49
2024/04/06 00:38:03;;;;;;;4.72;1.35;;;14.20;99.90;;;;;;4989532;28;20034;-46
2024/04/06 00:40:29;;;;;;;5.47;1.90;;;14.20;99.90;;;;;;4989539;28;20121;-49
2024/04/06 00:42:55;;;;;;;7.25;1.55;;;14.20;99.90;;;;;;4989590;28;20104;-46
2024/04/06 00:45:20;;;;;;;4.03;1.70;;;14.20;99.90;;;;;;4989678;28;20035;-50
2024/04/06 00:47:46;;;;;;;7.05;1.90;;;14.10;99.90;;;;;;5004869;28;20027;-47
2024/04/06 00:50:12;;;;;;;6.47;1.70;;;14.10;99.90;;;;;;4989344;28;20163;-50
2024/04/06 00:52:37;;;;;;;5.28;1.90;;;14.10;99.90;;;;;;5004594;28;20035;-49
2024/04/06 00:55:04;;;;;;;5.45;1.77;;;14.10;99.90;;;;;;4989445;28;20030;-47
2024/04/06 00:57:30;;;;;;;4.53;1.80;;;14.10;99.90;;;;;;4989357;28;20327;-48
2024/04/06 00:59:55;;;;;;;6.13;1.85;;;14.10;99.90;;;;;;4989108;28;20027;-47
2024/04/06 01:02:21;;;;;;;8.38;2.00;;;14.20;99.90;;;;;;4987901;28;20188;-50
2024/04/06 01:04:47;;;;;;;5.28;2.03;;;14.20;99.90;;;;;;4989212;28;20038;-47
2024/04/06 01:07:12;;;;;;;7.13;1.55;;;14.30;99.90;;;;;;4989304;28;20037;-47
2024/04/06 01:09:38;;;;;;;4.72;1.50;;;14.30;99.90;;;;;;5004411;28;20073;-46
2024/04/06 01:12:04;;;;;;;6.97;1.77;;;14.30;99.90;;;;;;5004333;28;20035;-48
2024/04/06 01:14:29;;;;;;;5.70;1.70;;;14.40;99.90;;;;;;4988957;28;20046;-48
2024/04/06 01:16:55;;;;;;;5.10;1.80;;;14.40;99.90;;;;;;4989006;28;20026;-46
2024/04/06 01:19:20;;;;;;;6.78;1.60;;;14.40;99.90;;;;;;5004145;28;20035;-49
2024/04/06 01:21:46;;;;;;;8.45;2.00;;;14.50;99.90;;;;;;4988615;28;20042;-48
2024/04/06 01:24:31;;;;;;;5.50;1.75;;;14.50;99.90;;;;;;4988692;28;20069;-48
2024/04/06 01:26:57;;;;;;;4.28;1.45;;;14.60;99.90;;;;;;4988907;28;20031;-46
2024/04/06 01:29:25;;;;;;;6.97;1.80;;;14.70;99.90;;;;;;4988296;28;20293;-48
2024/04/06 01:31:50;;;;;;;4.75;1.80;;;14.70;99.90;;;;;;5003629;28;20034;-49
2024/04/06 01:34:16;;;;;;;7.43;1.73;;;14.70;99.90;;;;;;4988697;28;20178;-47
2024/04/06 01:36:42;;;;;;;5.32;1.83;;;14.70;99.90;;;;;;4988604;28;20022;-49
2024/04/06 01:39:07;;;;;;;4.38;1.67;;;14.60;99.90;;;;;;4988706;28;20041;-50
2024/04/06 01:41:38;;;;;;;5.63;1.80;;;14.70;99.90;;;;;;4988523;28;20039;-50
2024/04/06 01:44:04;;;;;;;2.97;1.42;;;14.70;99.90;;;;;;4988296;28;20019;-46
2024/04/06 01:46:30;;;;;;;5.95;1.40;;;14.80;99.90;;;;;;5003755;28;20031;-49
2024/04/06 01:48:56;;;;;;;3.58;1.40;;;14.80;99.90;;;;;;5003447;28;20284;-46
2024/04/06 01:51:22;;;;;;;3.85;1.52;;;14.80;99.90;;;;;;5003615;28;20165;-48
2024/04/06 01:53:48;;;;;;;3.17;1.25;;;14.80;99.90;;;;;;4988241;28;20037;-48
2024/04/06 01:56:14;;;;;;;5.28;1.70;;;14.80;99.90;;;;;;4988215;28;20105;-48
2024/04/06 01:58:39;;;;;;;5.65;1.40;;;14.90;99.90;;;;;;4988229;28;20022;-47
2024/04/06 02:01:05;;;;;;;5.35;1.60;;;14.90;99.90;;;;;;5003148;28;20034;-51
2024/04/06 02:03:31;;;;;;;4.63;1.48;;;15.00;99.90;;;;;;4987657;28;20053;-49
2024/04/06 02:06:00;;;;;;;5.68;1.67;;;15.00;99.90;;;;;;4987808;28;20026;-48
2024/04/06 02:08:25;;;;;;;2.73;1.63;;;15.00;99.90;;;;;;4987958;28;20019;-48
2024/04/06 02:10:51;;;;;;;5.70;1.63;;;15.00;99.90;;;;;;5003103;28;20081;-46
2024/04/06 02:13:17;;;;;;;5.60;1.85;;;15.00;99.90;;;;;;4987730;28;20035;-49
2024/04/06 02:15:44;;;;;;;5.25;2.10;;;14.90;99.90;;;;;;4987786;28;20022;-49
2024/04/06 02:18:10;;;;;;;3.97;1.65;;;14.80;99.90;;;;;;4987760;28;20098;-46
2024/04/06 02:20:36;;;;;;;3.90;1.30;;;14.90;99.90;;;;;;4987859;28;20106;-48
2024/04/06 02:23:02;;;;;;;3.15;1.42;;;15.00;99.90;;;;;;4987822;28;20081;-49
2024/04/06 02:25:28;;;;;;;4.05;1.60;;;15.00;99.90;;;;;;4987724;28;20283;-46
2024/04/06 02:27:54;;;;;;;7.10;1.98;;;14.90;99.90;;;;;;4987720;28;20031;-48
2024/04/06 02:30:21;;;;;;;3.38;1.65;;;15.00;99.90;;;;;;4987500;28;20295;-47
2024/04/06 02:32:48;;;;;;;3.53;1.52;;;15.10;99.90;;;;;;5002620;28;20038;-48
2024/04/06 02:35:14;;;;;;;4.45;1.60;;;15.10;99.90;;;;;;4987209;28;20022;-48
2024/04/06 02:37:40;;;;;;;5.30;2.00;;;15.10;99.90;;;;;;4987193;28;20093;-48
2024/04/06 02:40:08;;;;;;;3.20;1.55;;;15.20;99.90;;;;;;4987194;28;20042;-48
2024/04/06 02:42:34;;;;;;;4.40;1.45;;;15.30;99.90;;;;;;4987308;28;20102;-49
2024/04/06 02:45:00;;;;;;;3.63;1.48;;;15.30;99.90;;;;;;4987438;28;20089;-48
2024/04/06 02:47:25;;;;;;;6.20;1.75;;;15.40;99.90;;;;;;4987397;28;20027;-49
2024/04/06 02:49:51;;;;;;;4.47;1.15;;;15.40;99.90;;;;;;4986909;28;20248;-49
2024/04/06 02:52:17;;;;;;;2.70;1.30;;;15.70;99.90;;;;;;4987125;28;20026;-49
2024/04/06 02:54:42;;;;;;;2.47;1.13;;;15.80;99.90;;;;;;4987179;28;20038;-49
2024/04/06 02:57:08;;;;;;;2.05;1.25;;;15.80;99.90;;;;;;4987283;28;20093;-48
2024/04/06 02:59:33;;;;;;;3.47;1.15;;;15.80;99.90;;;;;;4987161;28;20077;-49
2024/04/06 03:01:59;;;;;;;4.65;1.38;;;15.90;99.90;;;;;;4986871;28;20050;-49
2024/04/06 03:04:25;;;;;;;3.58;1.30;;;15.90;99.90;;;;;;4986574;28;20033;-48
2024/04/06 03:06:50;;;;;;;2.78;1.27;;;15.90;99.90;;;;;;4986971;28;20054;-48
2024/04/06 03:09:16;;;;;;;3.17;1.25;;;15.90;99.90;;;;;;4986966;28;20046;-50
2024/04/06 03:11:45;;;;;;;3.67;1.25;;;16.00;99.90;;;;;;4986868;28;20030;-49
2024/04/06 03:14:11;;;;;;;1.67;1.10;;;16.20;99.90;;;;;;4986850;28;20022;-49
2024/04/06 03:16:37;;;;;;;3.33;1.15;;;16.30;99.90;;;;;;4986815;28;20035;-50
2024/04/06 03:19:03;;;;;;;2.03;1.10;;;16.50;99.90;;;;;;4986971;28;20026;-46
2024/04/06 03:21:29;;;;;;;2.78;1.00;;;16.50;99.90;;;;;;4986793;28;20031;-50
2024/04/06 03:23:54;;;;;;;1.85;1.10;;;16.50;99.90;;;;;;4986314;28;20280;-50
2024/04/06 03:26:20;;;;;;;1.67;1.00;;;16.50;99.90;;;;;;4986385;28;20023;-50
2024/04/06 03:28:46;;;;;;;3.28;1.10;;;16.60;99.90;;;;;;4986655;28;20041;-50
2024/04/06 03:31:11;;;;;;;2.10;0.90;;;16.60;99.90;;;;;;4986783;28;20049;-50
2024/04/06 03:33:37;;;;;;;2.17;1.20;;;16.60;99.90;;;;;;4986826;28;20033;-49
2024/04/06 03:36:03;;;;;;;2.10;1.10;;;16.70;99.90;;;;;;4986250;28;20041;-48
2024/04/06 03:38:28;;;;;;;2.92;1.10;;;16.70;99.90;;;;;;4986491;28;20090;-49
2024/04/06 03:40:55;;;;;;;1.80;1.00;;;16.80;99.90;;;;;;4986593;28;20272;-49
2024/04/06 03:43:20;;;;;;;2.03;1.25;;;16.80;99.90;;;;;;5001630;28;20097;-49
2024/04/06 03:45:47;;;;;;;2.88;1.20;;;17.00;99.90;;;;;;4986359;28;20307;-49
2024/04/06 03:48:13;;;;;;;2.90;1.13;;;17.00;99.90;;;;;;4986563;28;20069;-50
2024/04/06 03:50:39;;;;;;;3.20;1.30;;;17.00;99.90;;;;;;4986173;28;20300;-50
2024/04/06 03:53:04;;;;;;;2.67;1.08;;;17.10;99.90;;;;;;4986485;28;20038;-46
2024/04/06 03:55:30;;;;;;;3.20;1.10;;;17.00;99.90;;;;;;4986490;28;20069;-50
2024/04/06 03:57:56;;;;;;;3.25;1.42;;;17.10;99.90;;;;;;4986255;28;20034;-48
2024/04/06 04:00:21;;;;;;;2.42;1.23;;;17.10;99.90;;;;;;4986153;28;20031;-49
2024/04/06 04:02:47;;;;;;;3.30;1.10;;;17.20;99.90;;;;;;5001676;28;20031;-50
2024/04/06 04:05:13;;;;;;;3.80;1.40;;;17.10;99.90;;;;;;4986612;28;20027;-50
2024/04/06 04:07:38;;;;;;;4.10;1.15;;;17.00;99.90;;;;;;4986344;28;20039;-50
2024/04/06 04:10:05;;;;;;;5.55;1.48;;;17.10;99.90;;;;;;4986106;28;20221;-47
2024/04/06 04:12:33;;;;;;;3.42;1.75;;;17.20;99.90;;;;;;4986497;28;20034;-50
2024/04/06 04:14:59;;;;;;;3.67;1.20;;;17.20;99.90;;;;;;4986335;28;20034;-50
2024/04/06 04:17:25;;;;;;;4.82;1.20;;;17.10;99.90;;;;;;4986321;28;20026;-50
2024/04/06 04:19:51;;;;;;;3.63;1.73;;;17.10;99.90;;;;;;4986027;28;20113;-49
2024/04/06 04:22:16;;;;;;;2.85;1.27;;;17.30;99.90;;;;;;4986077;28;20034;-49
2024/04/06 04:24:42;;;;;;;2.85;1.48;;;17.30;99.90;;;;;;4986225;28;20030;-50
2024/04/06 04:27:08;;;;;;;2.65;1.30;;;17.20;99.90;;;;;;4986280;28;20023;-49
2024/04/06 04:29:34;;;;;;;3.40;1.40;;;17.20;99.90;;;;;;5001323;28;20065;-49
2024/04/06 04:32:00;;;;;;;2.40;1.40;;;17.10;99.90;;;;;;4986147;28;20026;-49
2024/04/06 04:34:25;;;;;;;3.78;1.35;;;17.10;99.90;;;;;;5001714;28;20022;-50
2024/04/06 04:36:51;;;;;;;2.63;1.40;;;17.20;99.90;;;;;;4988760;28;20042;-48
2024/04/06 04:39:16;;;;;;;2.67;1.30;;;17.20;99.90;;;;;;4989634;28;20035;-50
2024/04/06 04:41:43;;;;;;;4.88;1.73;;;17.30;99.90;;;;;;4989341;28;20027;-49
2024/04/06 04:44:08;;;;;;;2.13;1.45;;;17.30;99.90;;;;;;4989573;28;20031;-50
2024/04/06 04:46:34;;;;;;;6.03;1.58;;;17.30;99.90;;;;;;4989693;28;20022;-50
2024/04/06 04:49:00;;;;;;;2.70;1.30;;;17.30;99.90;;;;;;4989289;28;20078;-47
2024/04/06 04:51:26;;;;;;;5.57;1.30;;;17.30;99.90;;;;;;4989325;28;20039;-50
2024/04/06 04:53:54;;;;;;;3.47;1.42;;;17.20;99.90;;;;;;4989281;28;20045;-50
2024/04/06 04:56:20;;;;;;;3.90;1.35;;;17.20;99.90;;;;;;4989379;28;20023;-48
2024/04/06 04:58:46;;;;;;;2.67;1.55;;;17.20;99.90;;;;;;4988902;28;20311;-50
2024/04/06 05:01:12;;;;;;;3.13;1.70;;;17.30;99.90;;;;;;4989328;28;20189;-49
2024/04/06 05:03:38;;;;;;;5.93;2.20;;;17.20;99.90;;;;;;4989321;28;20058;-50
2024/04/06 05:06:04;;;;;;;4.07;1.75;;;17.10;99.90;;;;;;4989043;28;20106;-50
2024/04/06 05:08:29;;;;;;;2.65;1.65;;;17.10;99.90;;;;;;5004645;28;20031;-50
2024/04/06 05:10:55;;;;;;;4.63;1.67;;;17.30;99.90;;;;;;4989217;28;20260;-50
2024/04/06 05:13:21;;;;;;;3.20;1.60;;;17.20;99.90;;;;;;4989132;28;20093;-50
2024/04/06 05:15:52;;;;;;;6.82;2.85;;;17.20;99.90;;;;;;4989156;28;20050;-49
2024/04/06 05:18:17;;;;;;;5.55;1.98;;;17.10;99.90;;;;;;4988909;28;20090;-50
2024/04/06 05:20:53;;;;;;;5.55;2.33;;;17.10;99.90;;;;;;4989240;28;20046;-50
2024/04/06 05:23:18;;;;;;;2.95;1.50;;;17.10;99.90;;;;;;4989060;28;20078;-49
2024/04/06 05:25:45;;;;;;;6.32;1.67;;;17.10;99.90;;;;;;4988511;28;20197;-50
2024/04/06 05:28:11;;;;;;;3.63;1.52;;;17.10;99.90;;;;;;4988471;28;20078;-49
2024/04/06 05:30:37;;;;;;;5.18;1.98;;;17.20;99.90;;;;;;4988377;28;20054;-46
2024/04/06 05:33:02;;;;;;;4.68;1.80;;;17.10;99.90;;;;;;4988815;28;20109;-50
2024/04/06 05:35:28;;;;;;;3.90;1.70;;;17.00;99.90;;;;;;4988523;28;20091;-48
2024/04/06 05:37:54;;;;;;;5.40;1.83;;;17.00;99.90;;;;;;5003689;28;20358;-47
2024/04/06 05:40:20;;;;;;;5.68;1.42;;;17.00;99.90;;;;;;4988351;28;20035;-47
2024/04/06 05:42:45;;;;;;;5.53;1.73;;;17.10;99.90;;;;;;4988007;28;20031;-50
2024/04/06 05:45:11;;;;;;;4.40;1.73;;;17.10;99.90;;;;;;4988510;28;20041;-48
2024/04/06 05:47:37;;;;;;;6.43;1.60;;;17.10;99.90;;;;;;5002953;28;20034;-51
2024/04/06 05:50:02;;;;;;;5.18;1.52;;;17.20;99.90;;;;;;4987765;28;20047;-50
2024/04/06 05:52:28;;;;;;;4.53;1.48;;;17.10;99.90;;;;;;4988250;28;20031;-50
2024/04/06 05:54:54;;;;;;;5.60;1.90;;;17.10;99.90;;;;;;4988147;28;20127;-51
2024/04/06 05:57:19;;;;;;;4.93;1.55;;;17.10;99.90;;;;;;4988204;28;20027;-48
2024/04/06 05:59:45;;;;;;;3.88;1.55;;;17.00;99.90;;;;;;4988199;28;20046;-50
2024/04/06 06:02:10;;;;;;;2.38;1.30;;;17.00;99.90;;;;;;4987861;28;20030;-49
2024/04/06 06:04:36;;;;;;;4.40;1.70;;;17.00;99.90;;;;;;4988160;28;20022;-50
2024/04/06 06:07:02;;;;;;;5.30;1.95;;;17.00;99.90;;;;;;4987931;28;20022;-51
2024/04/06 06:09:27;;;;;;;7.55;2.45;;;17.00;99.90;;;;;;4987954;28;20039;-51
2024/04/06 06:11:53;;;;;;;7.07;2.15;;;16.90;99.90;;;;;;5003036;28;20042;-51
2024/04/06 06:14:19;;;;;;;3.88;1.55;;;16.90;99.90;;;;;;4987867;28;20027;-51
2024/04/06 06:16:45;;;;;;;6.03;1.75;;;16.90;99.90;;;;;;4987793;28;20179;-49
2024/04/06 06:19:11;;;;;;;4.53;1.65;;;16.90;99.90;;;;;;5003301;28;20026;-51
2024/04/06 06:21:36;;;;;;;4.25;1.98;;;16.90;99.90;;;;;;4987693;28;20097;-50
2024/04/06 06:24:03;;;;;;;2.58;1.60;;;16.90;99.90;;;;;;4988021;28;20030;-47
2024/04/06 06:26:28;;;;;;;4.00;1.63;;;16.90;99.90;;;;;;4987469;28;20086;-47
2024/04/06 06:28:54;;;;;;;5.20;2.22;;;17.00;99.90;;;;;;4987644;28;20045;-51
2024/04/06 06:31:20;;;;;;;8.18;2.00;;;17.00;99.90;;;;;;4987525;28;20035;-50
2024/04/06 06:33:45;;;;;;;6.03;1.85;;;16.90;99.90;;;;;;4987179;28;20077;-51
2024/04/06 06:36:14;;;;;;;5.40;1.80;;;16.90;99.90;;;;;;5002577;28;20027;-50
2024/04/06 06:38:40;;;;;;;2.90;1.45;;;16.90;99.90;;;;;;4987061;28;20026;-50
2024/04/06 06:41:06;;;;;;;2.83;1.55;;;16.90;99.90;;;;;;4986973;28;20273;-51
2024/04/06 06:43:31;;;;;;;3.90;1.60;;;16.90;99.90;;;;;;5002489;28;20022;-50
2024/04/06 06:45:57;;;;;;;5.68;2.10;;;16.90;99.90;;;;;;4986921;28;20031;-46
2024/04/06 06:48:23;;;;;;;3.67;1.38;;;16.90;99.90;;;;;;4986680;28;20081;-50
2024/04/06 06:50:48;;;;;;;4.40;1.77;;;16.90;99.90;;;;;;4986951;28;20078;-49
2024/04/06 06:53:14;;;;;;;6.60;1.90;;;16.90;99.90;;;;;;4987235;28;20035;-47
2024/04/06 06:55:40;;;;;;;6.30;2.10;;;16.90;99.90;;;;;;4986635;28;20088;-46
2024/04/06 06:58:06;;;;;;;6.97;1.92;;;16.90;99.90;;;;;;4986911;28;20243;-49
2024/04/06 07:00:31;;;;;;;6.93;1.70;;;16.90;99.90;;;;;;4986123;28;20224;-50
2024/04/06 07:02:58;;;;;;;4.22;1.70;;;16.80;99.90;;;;;;4985711;28;20035;-51
2024/04/06 07:05:23;;;;;;;5.03;1.92;;;16.80;99.90;;;;;;4986363;28;20046;-50
2024/04/06 07:07:56;;;;;;;5.05;1.90;;;16.70;99.90;;;;;;4986615;28;20265;-47
2024/04/06 07:10:22;;;;;;;3.08;1.45;;;16.50;99.90;;;;;;5001586;28;20074;-48
2024/04/06 07:12:48;;;;;;;7.80;2.00;;;16.40;99.90;;;;;;4986809;28;20038;-49
2024/04/06 07:15:13;;;;;;;4.53;2.38;;;16.30;99.90;;;;;;4987193;28;20031;-48
2024/04/06 07:17:39;;;;;;;6.78;2.03;;;16.50;99.90;;;;;;4986738;28;20311;-51
2024/04/06 07:20:05;;;;;;;7.88;2.20;;;16.40;99.90;;;;;;4986722;28;20039;-53
2024/04/06 07:22:31;;;;;;;4.85;1.88;;;16.30;99.90;;;;;;4986471;28;20201;-50
2024/04/06 07:24:56;;;;;;;7.75;2.47;;;16.40;99.90;;;;;;4986508;28;20093;-50
2024/04/06 07:27:22;;;;;;;5.53;2.00;;;16.30;99.90;;;;;;4986460;28;20046;-50
2024/04/06 07:29:48;;;;;;;5.63;2.10;;;16.30;99.90;;;;;;4986129;28;20030;-50
2024/04/06 07:32:14;;;;;;;10.82;2.97;;;16.20;99.90;;;;;;4986090;28;20272;-50
2024/04/06 07:34:39;;;;;;;7.43;2.05;;;16.20;99.90;;;;;;4986711;28;20066;-50
2024/04/06 07:37:05;;;;;;;5.32;1.95;;;16.20;99.90;;;;;;4986381;28;20058;-46
2024/04/06 07:39:31;;;;;;;9.35;2.42;;;16.10;99.90;;;;;;5001632;28;20094;-50
2024/04/06 07:41:56;;;;;;;3.88;1.50;;;16.10;99.90;;;;;;4986195;28;20042;-48
2024/04/06 07:44:22;;;;;;;6.38;2.28;;;16.10;99.90;;;;;;4986060;28;20045;-51
2024/04/06 07:46:48;;;;;;;4.93;1.48;;;16.00;99.90;;;;;;4986208;28;20023;-51
2024/04/06 07:49:13;;;;;;;9.40;2.10;;;16.00;99.90;;;;;;4986124;28;20050;-51
2024/04/06 07:51:41;;;;;;;5.50;1.92;;;16.00;99.90;;;;;;4984961;28;20070;-51
2024/04/06 07:54:07;;;;;;;9.75;2.10;;;15.90;99.90;;;;;;4985774;28;20034;-51
2024/04/06 07:56:33;;;;;;;7.82;2.17;;;15.90;99.90;;;;;;4985968;28;20034;-51
2024/04/06 07:58:59;;;;;;;8.88;2.30;;;15.90;99.90;;;;;;4985995;28;20094;-51
2024/04/06 08:01:25;;;;;;;9.60;2.30;;;15.90;99.90;;;;;;4985911;28;20034;-49
2024/04/06 08:03:50;;;;;;;4.72;2.25;;;15.80;99.90;;;;;;4985497;28;20034;-52
2024/04/06 08:06:19;;;;;;;7.07;2.25;;;15.80;99.90;;;;;;4985814;28;20303;-47
2024/04/06 08:08:45;;;;;;;11.52;3.35;;;15.80;99.90;;;;;;4985745;28;20031;-51
2024/04/06 08:11:11;;;;;;;9.10;2.80;;;15.80;99.90;;;;;;4987559;28;20026;-52
2024/04/06 08:13:37;;;;;;;9.75;2.70;;;15.80;99.90;;;;;;4989958;28;20054;-49
2024/04/06 08:16:04;;;;;;;8.35;2.40;;;15.80;99.90;;;;;;4989318;28;20122;-51
2024/04/06 08:18:29;;;;;;;12.23;2.80;;;15.80;99.90;;;;;;4989367;28;20081;-51
2024/04/06 08:20:55;;;;;;;10.32;3.40;;;15.70;99.90;;;;;;4989726;28;20034;-50
2024/04/06 08:23:21;;;;;;;5.78;2.00;;;15.60;99.90;;;;;;5004533;28;20086;-47
2024/04/06 08:25:48;;;;;;;11.40;3.05;;;15.60;99.90;;;;;;4988441;28;20027;-51
2024/04/06 08:28:13;;;;;;;11.68;3.50;;;15.50;99.90;;;;;;4989378;28;20268;-52
2024/04/06 08:30:39;;;;;;;7.40;2.65;;;15.50;99.90;;;;;;4989461;28;20050;-48
2024/04/06 08:33:07;;;;;;;13.13;2.92;;;15.40;99.90;;;;;;4989340;28;20023;-48
2024/04/06 08:35:36;;;;;;;10.63;2.67;;;15.40;99.90;;;;;;4989376;28;20027;-51
2024/04/06 08:38:03;;;;;;;7.45;2.80;;;15.40;99.90;;;;;;4989195;28;20296;-51
2024/04/06 08:40:28;;;;;;;13.45;3.30;;;15.30;99.90;;;;;;4988729;28;20069;-50
2024/04/06 08:42:55;;;;;;;12.40;3.15;;;15.20;99.90;;;;;;4989224;28;20031;-52
2024/04/06 08:45:21;;;;;;;12.18;3.03;;;15.10;99.90;;;;;;5004444;28;20287;-51
2024/04/06 08:47:47;;;;;;;11.52;3.47;;;15.10;99.90;;;;;;5004386;28;20023;-50
2024/04/06 08:50:13;;;;;;;14.70;3.33;;;15.00;99.90;;;;;;4988562;28;20070;-49
2024/04/06 08:52:39;;;;;;;18.20;3.63;;;14.90;99.90;;;;;;4988823;28;20034;-51
2024/04/06 08:55:08;;;;;;;11.40;2.83;;;14.80;99.90;;;;;;4989222;28;20023;-51
2024/04/06 08:57:35;;;;;;;13.45;3.50;;;14.70;99.90;;;;;;4988249;28;20327;-51
2024/04/06 09:00:06;;;;;;;13.55;2.78;;;14.70;99.90;;;;;;4988802;28;20023;-52
2024/04/06 09:02:32;;;;;;;16.75;3.88;;;14.60;99.90;;;;;;4988753;28;20030;-51
2024/04/06 09:04:58;;;;;;;12.93;2.95;;;14.60;99.90;;;;;;4988695;28;20090;-49
2024/04/06 09:07:24;;;;;;;11.82;2.80;;;14.50;99.90;;;;;;4987779;28;20331;-52
2024/04/06 09:09:50;;;;;;;12.25;2.58;;;14.50;99.90;;;;;;5003985;28;20050;-51
2024/04/06 09:12:16;;;;;;;16.25;3.40;;;14.50;99.90;;;;;;4988340;28;20103;-49
2024/04/06 09:14:44;;;;;;;15.13;3.78;;;14.50;99.90;;;;;;5004208;28;20188;-52
2024/04/06 09:17:10;;;;;;;12.27;2.70;;;14.50;99.90;;;;;;4988468;28;20037;-51
2024/04/06 09:19:35;;;;;;;13.50;3.08;;;14.50;99.90;;;;;;4988561;28;20034;-51
2024/04/06 09:22:01;;;;;;;14.07;3.55;;;14.40;99.90;;;;;;4987939;28;20035;-51
2024/04/06 09:24:27;;;;;;;16.67;4.10;;;14.40;99.90;;;;;;4988206;28;20034;-51
2024/04/06 09:27:09;;;;;;;15.95;3.13;;;14.30;99.90;;;;;;4988605;28;20027;-51
2024/04/06 09:29:35;;;;;;;14.93;3.35;;;14.20;99.90;;;;;;4988293;28;20102;-52
2024/04/06 09:32:04;;;;;;;15.43;3.42;;;14.10;99.90;;;;;;4988285;28;20228;-51
2024/04/06 09:34:30;;;;;;;12.25;3.72;;;14.10;99.90;;;;;;4988339;28;20186;-50
2024/04/06 09:37:01;;;;;;;15.98;3.58;;;14.00;99.90;;;;;;4988407;28;20026;-51
2024/04/06 09:39:32;;;;;;;16.38;3.58;;;14.10;99.90;;;;;;4988949;28;20035;-52
2024/04/06 09:42:03;;;;;;;11.63;2.40;;;14.00;99.90;;;;;;5002701;28;20081;-47
2024/04/06 09:44:30;;;;;;;13.95;2.95;;;14.10;99.90;;;;;;5003042;28;20097;-50
2024/04/06 09:46:55;;;;;;;15.88;3.15;;;14.10;99.90;;;;;;4987950;28;20082;-49
2024/04/06 09:49:24;;;;;;;15.65;3.58;;;14.20;99.90;;;;;;4987727;28;20076;-51
2024/04/06 09:51:53;;;;;;;16.83;2.60;;;14.20;99.90;;;;;;4987686;28;20338;-50
2024/04/06 09:54:19;;;;;;;14.18;3.13;;;14.10;99.90;;;;;;4987405;28;20035;-51
2024/04/06 09:56:48;;;;;;;11.93;4.10;;;14.10;99.90;;;;;;4987668;28;20104;-51
2024/04/06 09:59:23;;;;;;;15.88;6.53;;;14.10;99.90;;;;;;4987651;28;20062;-49
2024/04/06 10:01:48;;;;;;;20.08;4.85;;;14.10;99.90;;;;;;4987082;28;20031;-49
2024/04/06 10:04:34;;;;;;;17.60;4.68;;;14.10;99.90;;;;;;5003169;28;20181;-51
2024/04/06 10:07:04;;;;;;;16.30;3.70;;;14.10;99.90;;;;;;5002527;28;20266;-49
2024/04/06 10:09:31;;;;;;;15.57;3.30;;;14.00;99.90;;;;;;4987572;28;20038;-47
2024/04/06 10:12:01;;;;;;;14.75;5.00;;;14.10;99.90;;;;;;4987243;28;20029;-50
2024/04/06 10:14:26;;;;;;;14.75;3.38;;;14.10;99.90;;;;;;4987027;28;20098;-50
2024/04/06 10:17:13;;;;;;;18.17;4.28;;;14.10;99.90;;;;;;4987299;28;20030;-48
2024/04/06 10:19:39;;;;;;;16.33;5.20;;;14.20;99.90;;;;;;4987383;28;20192;-51
2024/04/06 10:22:07;;;;;;;14.13;2.95;;;14.30;99.90;;;;;;4986982;28;20043;-51
2024/04/06 10:24:36;;;;;;;17.67;4.10;;;14.30;99.90;;;;;;4987290;28;20090;-53
2024/04/06 10:27:02;;;;;;;27.67;10.82;;;14.30;99.90;;;;;;4986886;28;20030;-51
2024/04/06 10:29:29;;;;;;;18.13;3.55;;;14.20;99.90;;;;;;4987288;28;20030;-51
2024/04/06 10:31:55;;;;;;;13.27;4.30;;;14.10;99.90;;;;;;4987266;28;20030;-51
2024/04/06 10:34:21;;;;;;;13.85;3.47;;;14.10;99.90;;;;;;4986802;28;20022;-49
2024/04/06 10:36:47;;;;;;;14.95;3.38;;;14.10;99.90;;;;;;4987099;28;20031;-51
2024/04/06 10:39:12;;;;;;;8.23;2.65;;;14.10;99.90;;;;;;4987206;28;20101;-52
2024/04/06 10:41:39;;;;;;;20.08;4.40;;;14.00;99.90;;;;;;4986393;28;20031;-50
2024/04/06 10:44:05;;;;;;;23.02;6.05;;;14.00;99.90;;;;;;4987073;28;20137;-50
2024/04/06 10:46:31;;;;;;;10.98;3.80;;;14.00;99.90;;;;;;4986609;28;20093;-51
2024/04/06 10:48:57;;;;;;;13.00;3.88;;;14.00;99.90;;;;;;5001707;28;20022;-51
2024/04/06 10:51:22;;;;;;;15.98;4.80;;;13.90;99.90;;;;;;4986625;28;20326;-50
2024/04/06 10:53:49;;;;;;;23.00;5.40;;;14.00;99.90;;;;;;5001659;28;20138;-51
2024/04/06 10:56:14;;;;;;;18.80;4.00;;;13.90;99.90;;;;;;5001634;28;20015;-48
2024/04/06 10:58:40;;;;;;;18.88;4.80;;;13.90;99.90;;;;;;4986460;28;20094;-51
2024/04/06 11:01:15;;;;;;;19.63;4.15;;;13.80;99.90;;;;;;5001634;28;20027;-51
2024/04/06 11:03:41;;;;;;;24.38;5.10;;;13.70;99.90;;;;;;4986058;28;20085;-50
2024/04/06 11:06:06;;;;;;;20.42;4.93;;;13.70;99.90;;;;;;4986225;28;20233;-49
2024/04/06 11:08:32;;;;;;;10.10;2.88;;;13.60;99.90;;;;;;5001374;28;20023;-48
2024/04/06 11:10:58;;;;;;;18.65;3.65;;;13.40;99.90;;;;;;5001594;28;20113;-50
2024/04/06 11:13:24;;;;;;;16.63;3.75;;;13.50;99.90;;;;;;4986640;28;20062;-51
2024/04/06 11:15:50;;;;;;;20.13;3.80;;;13.30;99.90;;;;;;4986401;28;20090;-52
2024/04/06 11:18:16;;;;;;;20.10;4.45;;;13.20;99.90;;;;;;4986251;28;20176;-49
2024/04/06 11:20:41;;;;;;;17.98;3.45;;;13.20;99.90;;;;;;4986222;28;20149;-49
2024/04/06 11:23:19;;;;;;;25.20;5.05;;;13.30;99.90;;;;;;5001172;28;20105;-51
2024/04/06 11:25:45;;;;;;;19.92;3.67;;;13.40;99.90;;;;;;4986232;28;20037;-49
2024/04/06 11:28:11;;;;;;;26.77;5.13;;;13.60;99.90;;;;;;4985729;28;20063;-49
2024/04/06 11:30:37;;;;;;;29.25;5.38;;;13.80;99.90;;;;;;4985796;28;20033;-50
2024/04/06 11:33:03;;;;;;;17.70;3.88;;;13.90;99.90;;;;;;4985814;28;20082;-48
2024/04/06 11:35:30;;;;;;;24.10;4.90;;;14.00;99.90;;;;;;4985791;28;20160;-50
2024/04/06 11:37:56;;;;;;;21.77;4.53;;;14.00;99.90;;;;;;4985963;28;20049;-50
2024/04/06 11:40:22;;;;;;;26.15;7.47;;;14.00;99.90;;;;;;5000440;28;20062;-49
2024/04/06 11:42:47;;;;;;;19.35;4.55;;;14.00;99.90;;;;;;4985568;28;20033;-52
2024/04/06 11:45:13;;;;;;;17.52;5.60;;;14.10;99.90;;;;;;5000356;28;20031;-51
2024/04/06 11:47:40;;;;;;;23.90;5.30;;;14.30;99.90;;;;;;4985624;28;20035;-56
2024/04/06 11:50:05;;;;;;;21.60;4.53;;;14.20;99.90;;;;;;5000479;28;20049;-52
2024/04/06 11:52:31;;;;;;;21.13;4.30;;;14.10;99.90;;;;;;5000630;28;20034;-49
2024/04/06 11:54:57;;;;;;;12.40;4.45;;;14.10;99.90;;;;;;4986023;28;20138;-51
2024/04/06 11:57:22;;;;;;;18.65;5.03;;;14.10;99.90;;;;;;4985874;28;20260;-49
2024/04/06 11:59:48;;;;;;;18.50;3.38;;;14.20;99.90;;;;;;4985269;28;20057;-50
2024/04/06 12:02:14;;;;;;;18.38;4.07;;;14.60;99.90;;;;;;4985511;28;20035;-49
2024/04/06 12:04:39;;;;;;;21.23;4.20;;;14.50;99.90;;;;;;4985317;28;20019;-51
2024/04/06 12:07:05;;;;;;;27.10;5.65;;;14.40;99.90;;;;;;4985510;28;20027;-50
2024/04/06 12:09:30;;;;;;;18.00;4.38;;;14.30;99.90;;;;;;4985105;28;20229;-50
2024/04/06 12:11:56;;;;;;;22.55;5.25;;;14.20;99.90;;;;;;4985594;28;20027;-49
2024/04/06 12:14:22;;;;;;;26.05;4.65;;;14.30;99.90;;;;;;4985625;28;20288;-48
2024/04/06 12:16:47;;;;;;;20.52;4.53;;;14.90;99.90;;;;;;4985704;28;20054;-48
2024/04/06 12:19:13;;;;;;;17.42;4.50;;;16.40;99.90;;;;;;4984521;28;20223;-51
2024/04/06 12:21:39;;;;;;;22.80;4.43;;;17.30;99.90;;;;;;4985536;28;20047;-51
2024/04/06 12:24:05;;;;;;;21.88;4.05;;;17.60;99.90;;;;;;4985234;28;20086;-50
2024/04/06 12:26:30;;;;;;;24.88;4.47;;;16.60;99.90;;;;;;4985874;28;20046;-50
2024/04/06 12:28:56;;;;;;;24.02;5.20;;;15.70;99.90;;;;;;4985621;28;20118;-52
2024/04/06 12:31:22;;;;;;;28.05;5.47;;;15.20;99.90;;;;;;5000389;28;20089;-50
2024/04/06 12:33:47;;;;;;;20.92;4.78;;;14.90;99.90;;;;;;4984910;28;20149;-49
2024/04/06 12:36:13;;;;;;;15.57;4.47;;;15.50;99.90;;;;;;4985217;28;20042;-48
2024/04/06 12:38:38;;;;;;;36.35;5.55;;;15.60;99.90;;;;;;5000242;28;20054;-50